Time;durP1;ratioP1;P1;durP2;ratioP2;P2;SDS_P1;SDS_P2;PMS_P1;PMS_P2;Temp;Humidity;BMP_temperature;BMP_pressure;BME280_temperature;BME280_humidity;BME280_pressure;Samples;Min_cycle;Max_cycle;Signal;HPM_P1;HPM_P2
2022/05/15 00:01:01;;;;;;;13.53;9.30;;;12.40;89.20;;;;;;5092600;28;20472;-77
2022/05/15 00:03:41;;;;;;;14.60;9.47;;;12.30;89.20;;;;;;5093009;28;20444;-77
2022/05/15 00:06:10;;;;;;;17.43;9.43;;;12.30;89.30;;;;;;5092434;28;20576;-76
2022/05/15 00:08:39;;;;;;;14.03;8.87;;;12.20;89.20;;;;;;5095550;28;20554;-76
2022/05/15 00:11:08;;;;;;;17.47;9.30;;;12.20;89.40;;;;;;5096086;28;20471;-76
2022/05/15 00:13:38;;;;;;;14.03;8.67;;;12.10;89.40;;;;;;5096199;28;21018;-77
2022/05/15 00:16:07;;;;;;;16.70;9.20;;;12.10;89.50;;;;;;5096132;28;20459;-77
2022/05/15 00:18:36;;;;;;;13.60;8.37;;;12.00;89.50;;;;;;5095997;28;20447;-77
2022/05/15 00:21:06;;;;;;;13.63;9.00;;;12.00;89.60;;;;;;5095755;28;20471;-77
2022/05/15 00:23:34;;;;;;;19.50;10.07;;;12.00;89.70;;;;;;5097236;28;20949;-77
2022/05/15 00:26:02;;;;;;;12.93;8.13;;;11.90;89.70;;;;;;5095831;28;20455;-76
2022/05/15 00:28:30;;;;;;;11.73;8.00;;;11.90;89.80;;;;;;5095925;28;20452;-77
2022/05/15 00:30:59;;;;;;;14.90;7.90;;;11.80;89.80;;;;;;5095746;28;21000;-76
2022/05/15 00:33:27;;;;;;;11.50;7.80;;;11.80;89.90;;;;;;5097181;28;20470;-77
2022/05/15 00:35:55;;;;;;;16.27;8.73;;;11.80;90.00;;;;;;5095618;28;20451;-77
2022/05/15 00:38:25;;;;;;;11.00;7.60;;;11.70;90.00;;;;;;5095748;28;20447;-76
2022/05/15 00:40:53;;;;;;;13.63;7.57;;;11.70;90.00;;;;;;5095370;28;20484;-76
2022/05/15 00:43:45;;;;;;;14.00;7.87;;;11.60;90.00;;;;;;5095552;28;20447;-76
2022/05/15 00:46:17;;;;;;;13.40;7.30;;;11.60;90.00;;;;;;5095857;28;20452;-76
2022/05/15 00:48:48;;;;;;;13.67;9.27;;;11.50;90.00;;;;;;5096773;28;20819;-77
2022/05/15 00:51:20;;;;;;;12.37;7.97;;;11.50;90.00;;;;;;5096971;28;20464;-77
2022/05/15 00:53:53;;;;;;;11.50;7.60;;;11.50;90.10;;;;;;5095453;28;20874;-76
2022/05/15 00:56:24;;;;;;;12.93;7.57;;;11.50;90.10;;;;;;5095367;28;20439;-76
2022/05/15 00:59:00;;;;;;;14.60;7.87;;;11.40;90.00;;;;;;5095322;28;20490;-77
2022/05/15 01:01:28;;;;;;;16.80;8.20;;;11.40;90.00;;;;;;5095537;28;20487;-77
2022/05/15 01:03:57;;;;;;;12.50;8.00;;;11.30;90.00;;;;;;5095158;28;20475;-76
2022/05/15 01:06:25;;;;;;;13.93;7.90;;;11.30;90.00;;;;;;5094922;28;20440;-76
2022/05/15 01:08:54;;;;;;;16.40;9.00;;;11.30;90.10;;;;;;5094964;28;20996;-76
2022/05/15 01:11:25;;;;;;;16.00;10.10;;;11.20;90.10;;;;;;5094860;28;20906;-76
2022/05/15 01:13:54;;;;;;;16.27;8.50;;;11.20;90.10;;;;;;5095059;28;20874;-76
2022/05/15 01:16:25;;;;;;;12.40;7.40;;;11.20;90.10;;;;;;5094891;28;20455;-76
2022/05/15 01:18:57;;;;;;;15.93;8.33;;;11.10;90.10;;;;;;5094064;28;20940;-77
2022/05/15 01:21:31;;;;;;;16.30;8.80;;;11.10;90.20;;;;;;5094816;28;21023;-76
2022/05/15 01:24:01;;;;;;;14.27;8.03;;;11.00;90.20;;;;;;5094787;28;20428;-76
2022/05/15 01:26:32;;;;;;;13.97;7.70;;;11.00;90.10;;;;;;5094894;28;20448;-76
2022/05/15 01:29:03;;;;;;;15.13;8.30;;;11.00;90.20;;;;;;5094746;28;20448;-77
2022/05/15 01:31:32;;;;;;;15.13;8.23;;;10.90;90.10;;;;;;5094757;28;20496;-76
2022/05/15 01:34:01;;;;;;;13.10;8.10;;;10.90;90.20;;;;;;5096011;28;20440;-76
2022/05/15 01:36:31;;;;;;;15.27;8.83;;;10.80;90.10;;;;;;5094681;28;20483;-76
2022/05/15 01:39:02;;;;;;;17.03;9.70;;;10.80;90.20;;;;;;5094314;28;20467;-76
2022/05/15 01:41:30;;;;;;;12.50;7.90;;;10.80;90.20;;;;;;5094271;28;20841;-76
2022/05/15 01:43:59;;;;;;;23.53;9.97;;;10.80;90.30;;;;;;5094332;28;20472;-76
2022/05/15 01:46:30;;;;;;;16.63;8.77;;;10.70;90.30;;;;;;5094880;28;20522;-76
2022/05/15 01:49:06;;;;;;;15.10;8.83;;;10.70;90.40;;;;;;5094616;28;20502;-77
2022/05/15 01:51:41;;;;;;;12.30;7.83;;;10.70;90.40;;;;;;5094071;28;20468;-76
2022/05/15 01:54:11;;;;;;;14.57;7.70;;;10.60;90.30;;;;;;5094262;28;20807;-77
2022/05/15 01:56:40;;;;;;;10.37;7.73;;;10.60;90.40;;;;;;5094095;28;20867;-77
2022/05/15 01:59:09;;;;;;;20.50;10.47;;;10.50;90.40;;;;;;5094207;28;20447;-77
2022/05/15 02:01:40;;;;;;;14.10;8.60;;;10.50;90.40;;;;;;5093910;28;20551;-76
2022/05/15 02:04:09;;;;;;;12.83;8.60;;;10.50;90.60;;;;;;5094042;28;20437;-76
2022/05/15 02:06:40;;;;;;;14.53;8.83;;;10.40;90.70;;;;;;5093978;28;20475;-77
2022/05/15 02:09:10;;;;;;;14.90;9.37;;;10.40;90.80;;;;;;5093882;28;20527;-76
2022/05/15 02:11:38;;;;;;;13.33;8.83;;;10.40;90.90;;;;;;5095239;28;20456;-76
2022/05/15 02:14:07;;;;;;;13.20;8.43;;;10.40;90.90;;;;;;5094048;28;20475;-76
2022/05/15 02:16:38;;;;;;;13.70;9.43;;;10.40;90.90;;;;;;5093708;28;20455;-77
2022/05/15 02:19:08;;;;;;;14.83;9.00;;;10.30;90.90;;;;;;5094486;28;20449;-76
2022/05/15 02:21:36;;;;;;;15.43;9.07;;;10.30;90.90;;;;;;5093470;28;20465;-76
2022/05/15 02:24:07;;;;;;;15.87;9.23;;;10.30;90.90;;;;;;5093541;28;20491;-77
2022/05/15 02:26:37;;;;;;;12.80;8.10;;;10.20;90.80;;;;;;5094864;28;20853;-76
2022/05/15 02:29:07;;;;;;;12.70;8.47;;;10.20;90.80;;;;;;5097427;28;20476;-76
2022/05/15 02:31:36;;;;;;;13.27;8.30;;;10.20;90.80;;;;;;5093721;28;20464;-77
2022/05/15 02:34:05;;;;;;;11.63;8.73;;;10.20;90.90;;;;;;5094813;28;20986;-77
2022/05/15 02:36:34;;;;;;;13.47;7.90;;;10.10;90.90;;;;;;5093586;28;20456;-77
2022/05/15 02:39:03;;;;;;;12.40;8.03;;;10.10;91.00;;;;;;5093403;28;20506;-77
2022/05/15 02:41:34;;;;;;;13.57;8.27;;;10.10;91.00;;;;;;5094635;28;20472;-77
2022/05/15 02:44:05;;;;;;;11.60;7.73;;;10.00;90.90;;;;;;5093380;28;20436;-77
2022/05/15 02:51:53;;;;;;;11.43;8.27;;;9.90;91.40;;;;;;5093085;28;20899;-77
2022/05/15 02:54:21;;;;;;;11.70;8.77;;;9.90;91.40;;;;;;5093229;28;20471;-76
2022/05/15 02:56:51;;;;;;;11.90;8.30;;;9.90;91.50;;;;;;5093042;28;20460;-77
2022/05/15 02:59:20;;;;;;;14.93;8.43;;;9.80;91.40;;;;;;5092939;28;20535;-76
2022/05/15 03:01:48;;;;;;;15.70;9.07;;;9.80;91.50;;;;;;5092697;28;20495;-76
2022/05/15 03:04:16;;;;;;;11.13;8.63;;;9.80;91.50;;;;;;5093002;28;20535;-77
2022/05/15 03:06:45;;;;;;;9.63;8.10;;;9.70;91.40;;;;;;5092730;28;20502;-76
2022/05/15 03:09:13;;;;;;;13.17;7.70;;;9.70;91.50;;;;;;5092712;28;20448;-76
2022/05/15 03:11:41;;;;;;;11.17;8.30;;;9.70;91.50;;;;;;5092535;28;20522;-76
2022/05/15 03:14:11;;;;;;;15.20;9.00;;;9.70;91.60;;;;;;5093933;28;20921;-76
2022/05/15 03:16:40;;;;;;;13.77;7.93;;;9.60;91.60;;;;;;5092884;28;20452;-77
2022/05/15 03:19:09;;;;;;;15.57;8.20;;;9.60;91.60;;;;;;5092686;28;20445;-76
2022/05/15 03:21:37;;;;;;;9.73;8.00;;;9.60;91.60;;;;;;5092418;28;20563;-76
2022/05/15 03:24:08;;;;;;;11.90;7.80;;;9.60;91.60;;;;;;5094006;28;20518;-76
2022/05/15 03:26:40;;;;;;;14.07;7.73;;;9.50;91.60;;;;;;5092489;28;20444;-76
2022/05/15 03:29:09;;;;;;;14.13;9.57;;;9.50;91.60;;;;;;5092517;28;20498;-76
2022/05/15 03:31:39;;;;;;;10.83;7.90;;;9.50;91.60;;;;;;5092401;28;20559;-77
2022/05/15 03:34:09;;;;;;;16.57;8.53;;;9.50;91.70;;;;;;5092298;28;20925;-77
2022/05/15 03:36:40;;;;;;;9.03;6.70;;;9.40;91.70;;;;;;5092352;28;20452;-76
2022/05/15 03:39:09;;;;;;;11.93;7.67;;;9.40;91.70;;;;;;5092211;28;20463;-76
2022/05/15 03:41:38;;;;;;;14.33;9.00;;;9.40;91.80;;;;;;5091894;28;20521;-76
2022/05/15 03:44:07;;;;;;;12.50;8.47;;;9.40;91.80;;;;;;5092253;28;20491;-76
2022/05/15 03:46:36;;;;;;;16.90;8.50;;;9.40;91.80;;;;;;5092160;28;20853;-76
2022/05/15 03:49:06;;;;;;;15.00;9.10;;;9.30;91.80;;;;;;5092250;28;20490;-76
2022/05/15 03:51:35;;;;;;;13.30;7.80;;;9.30;91.80;;;;;;5092236;28;20468;-76
2022/05/15 03:54:04;;;;;;;13.83;8.70;;;9.30;91.80;;;;;;5092146;28;20452;-76
2022/05/15 03:59:21;;;;;;;13.00;8.30;;;9.30;91.90;;;;;;5092189;28;20448;-77
2022/05/15 04:01:50;;;;;;;13.50;8.23;;;9.30;91.90;;;;;;5092838;28;20479;-76
2022/05/15 04:04:20;;;;;;;16.00;8.50;;;9.20;91.90;;;;;;5092071;28;20852;-76
2022/05/15 04:06:48;;;;;;;12.30;9.13;;;9.20;92.00;;;;;;5091985;28;20868;-76
2022/05/15 04:09:17;;;;;;;13.00;9.57;;;9.20;92.10;;;;;;5091918;28;20444;-76
2022/05/15 04:11:45;;;;;;;15.37;10.13;;;9.20;92.20;;;;;;5092041;28;20468;-76
2022/05/15 04:14:13;;;;;;;18.87;11.10;;;9.20;92.30;;;;;;5091925;28;20531;-76
2022/05/15 04:16:43;;;;;;;15.70;9.67;;;9.20;92.40;;;;;;5091961;28;20452;-76
2022/05/15 04:19:12;;;;;;;13.97;8.80;;;9.20;92.60;;;;;;5093163;28;20794;-76
2022/05/15 04:21:42;;;;;;;18.47;9.73;;;9.20;92.70;;;;;;5091743;28;20507;-76
2022/05/15 04:24:12;;;;;;;17.50;9.10;;;9.20;92.80;;;;;;5092114;28;20474;-76
2022/05/15 04:26:42;;;;;;;15.53;9.90;;;9.20;92.80;;;;;;5091979;28;20557;-76
2022/05/15 04:29:10;;;;;;;15.70;10.43;;;9.20;92.90;;;;;;5092028;28;20448;-76
2022/05/15 04:31:38;;;;;;;17.17;10.53;;;9.20;92.90;;;;;;5091835;28;20550;-77
2022/05/15 04:34:07;;;;;;;17.57;10.77;;;9.20;93.00;;;;;;5091796;28;20433;-76
2022/05/15 04:36:36;;;;;;;15.70;10.10;;;9.20;93.00;;;;;;5091696;28;20858;-76
2022/05/15 04:39:07;;;;;;;17.10;9.57;;;9.20;93.20;;;;;;5092986;28;20991;-76
2022/05/15 04:41:35;;;;;;;13.60;11.23;;;9.20;93.30;;;;;;5091697;28;20472;-76
2022/05/15 04:44:03;;;;;;;16.37;9.83;;;9.20;93.40;;;;;;5091583;28;20564;-76
2022/05/15 04:46:31;;;;;;;17.67;12.13;;;9.20;93.50;;;;;;5091658;28;20539;-76
2022/05/15 04:49:00;;;;;;;17.17;11.90;;;9.30;93.70;;;;;;5091708;28;20454;-76
2022/05/15 04:51:28;;;;;;;16.43;11.33;;;9.30;93.90;;;;;;5091536;28;21091;-77
2022/05/15 04:53:57;;;;;;;12.87;10.80;;;9.30;94.00;;;;;;5092141;28;20589;-76
2022/05/15 04:56:27;;;;;;;16.07;11.70;;;9.30;94.10;;;;;;5095249;28;20956;-76
2022/05/15 04:58:55;;;;;;;16.90;11.40;;;9.40;94.40;;;;;;5096767;28;20436;-76
2022/05/15 05:01:25;;;;;;;15.07;11.20;;;9.40;94.50;;;;;;5095098;28;20474;-76
2022/05/15 05:03:54;;;;;;;15.00;10.00;;;9.40;94.70;;;;;;5095241;28;20464;-76
2022/05/15 05:06:23;;;;;;;15.50;11.40;;;9.40;94.70;;;;;;5096324;28;20431;-76
2022/05/15 05:08:52;;;;;;;16.60;11.10;;;9.50;94.90;;;;;;5095083;28;20548;-76
2022/05/15 05:11:21;;;;;;;16.80;11.37;;;9.50;95.00;;;;;;5095013;28;20466;-76
2022/05/15 05:13:51;;;;;;;15.63;11.00;;;9.50;95.10;;;;;;5096210;28;20519;-76
2022/05/15 05:16:19;;;;;;;15.43;11.43;;;9.60;95.30;;;;;;5094977;28;20484;-76
2022/05/15 05:18:48;;;;;;;17.03;11.37;;;9.60;95.40;;;;;;5094906;28;20487;-76
2022/05/15 05:21:16;;;;;;;15.93;11.53;;;9.70;95.60;;;;;;5094835;28;20551;-77
2022/05/15 05:23:45;;;;;;;18.97;13.13;;;9.70;95.80;;;;;;5094878;28;20559;-76
2022/05/15 05:26:13;;;;;;;18.43;12.20;;;9.80;96.00;;;;;;5094994;28;20555;-77
2022/05/15 05:28:41;;;;;;;22.03;12.07;;;9.80;96.20;;;;;;5094766;28;20448;-77
2022/05/15 05:31:11;;;;;;;18.57;13.23;;;9.90;96.50;;;;;;5094685;28;20506;-76
2022/05/15 05:33:39;;;;;;;20.97;12.93;;;10.00;96.30;;;;;;5094638;28;20505;-76
2022/05/15 05:36:08;;;;;;;17.23;11.80;;;10.10;96.50;;;;;;5096068;28;20456;-76
2022/05/15 05:38:36;;;;;;;21.43;12.60;;;10.20;96.70;;;;;;5095691;28;20487;-76
2022/05/15 05:41:05;;;;;;;19.23;13.13;;;10.30;96.90;;;;;;5094488;28;20468;-76
2022/05/15 05:43:33;;;;;;;16.67;12.60;;;10.50;97.10;;;;;;5095998;28;20900;-76
2022/05/15 05:46:02;;;;;;;25.20;13.70;;;10.60;97.30;;;;;;5094339;28;20815;-76
2022/05/15 05:48:31;;;;;;;15.90;11.10;;;10.80;97.50;;;;;;5094410;28;20984;-76
2022/05/15 05:50:59;;;;;;;22.77;12.43;;;11.10;97.80;;;;;;5094407;28;20558;-76
2022/05/15 05:53:27;;;;;;;16.90;11.60;;;11.30;98.00;;;;;;5094213;28;20535;-76
2022/05/15 05:55:56;;;;;;;20.33;11.97;;;11.60;98.20;;;;;;5094151;28;20459;-77
2022/05/15 05:58:24;;;;;;;18.80;10.73;;;11.90;98.40;;;;;;5095621;28;20497;-76
2022/05/15 06:00:52;;;;;;;20.47;13.60;;;12.30;98.60;;;;;;5095428;28;20555;-77
2022/05/15 06:06:07;;;;;;;18.43;9.83;;;12.90;98.70;;;;;;5094114;28;20440;-77
2022/05/15 06:08:35;;;;;;;19.97;9.57;;;13.20;98.60;;;;;;5094117;28;20452;-77
2022/05/15 06:11:04;;;;;;;18.30;10.50;;;13.50;98.70;;;;;;5093928;28;20491;-77
2022/05/15 06:13:32;;;;;;;14.77;9.57;;;13.80;98.70;;;;;;5093846;28;20455;-77
2022/05/15 06:16:01;;;;;;;20.93;10.57;;;14.10;98.70;;;;;;5094055;28;20535;-76
2022/05/15 06:18:30;;;;;;;16.23;9.70;;;14.40;98.70;;;;;;5093962;28;20452;-77
2022/05/15 06:20:58;;;;;;;15.87;9.07;;;14.80;98.70;;;;;;5093542;28;20460;-76
2022/05/15 06:23:28;;;;;;;14.77;9.17;;;15.00;98.40;;;;;;5093498;28;20494;-76
2022/05/15 06:25:56;;;;;;;16.43;9.27;;;15.30;98.30;;;;;;5093626;28;20449;-76
2022/05/15 06:28:24;;;;;;;14.30;8.60;;;15.50;98.10;;;;;;5095064;28;20450;-76
2022/05/15 06:30:52;;;;;;;17.67;8.47;;;15.80;98.10;;;;;;5093403;28;20468;-76
2022/05/15 06:33:20;;;;;;;14.67;8.10;;;16.00;98.00;;;;;;5093379;28;20444;-76
2022/05/15 06:35:48;;;;;;;14.87;8.90;;;16.30;97.80;;;;;;5093524;28;20444;-77
2022/05/15 06:38:17;;;;;;;14.87;8.77;;;16.50;97.60;;;;;;5094718;28;20539;-77
2022/05/15 06:40:46;;;;;;;14.07;9.40;;;16.70;97.30;;;;;;5095013;28;20460;-77
2022/05/15 06:43:14;;;;;;;13.47;8.37;;;17.00;97.10;;;;;;5093238;28;21012;-77
2022/05/15 06:45:43;;;;;;;8.20;6.70;;;17.20;97.00;;;;;;5093430;28;20548;-76
2022/05/15 06:48:12;;;;;;;12.90;7.87;;;17.40;96.80;;;;;;5093298;28;20469;-77
2022/05/15 06:50:41;;;;;;;13.00;7.87;;;17.70;96.60;;;;;;5095209;28;20536;-77
2022/05/15 06:53:12;;;;;;;11.50;6.80;;;17.90;96.40;;;;;;5094349;28;20440;-77
2022/05/15 06:57:28;;;;;;;13.70;7.07;;;18.10;96.40;;;;;;5093961;28;20489;-77
2022/05/15 06:58:32;;;;;;;12.90;7.73;;;18.30;95.90;;;;;;5094852;28;20873;-77
2022/05/15 07:01:00;;;;;;;11.93;7.67;;;18.50;95.80;;;;;;5093378;28;20558;-77
2022/05/15 07:03:29;;;;;;;11.70;6.77;;;18.60;95.70;;;;;;5094181;28;20499;-77
2022/05/15 07:05:57;;;;;;;14.23;7.30;;;18.90;95.50;;;;;;5094351;28;21011;-77
2022/05/15 07:08:25;;;;;;;13.73;7.00;;;19.00;95.30;;;;;;5096045;28;20999;-78
2022/05/15 07:10:54;;;;;;;18.90;6.73;;;19.20;95.10;;;;;;5093927;28;20466;-78
2022/05/15 07:13:22;;;;;;;10.23;6.03;;;19.40;94.90;;;;;;5094981;28;20949;-77
2022/05/15 07:15:52;;;;;;;11.50;6.40;;;19.60;94.70;;;;;;5096155;28;20440;-77
2022/05/15 07:18:23;;;;;;;12.10;6.20;;;19.90;94.50;;;;;;5093753;28;20952;-77
2022/05/15 07:20:52;;;;;;;11.80;5.40;;;20.00;94.10;;;;;;5094947;28;20464;-78
2022/05/15 07:23:20;;;;;;;10.43;5.50;;;20.10;93.70;;;;;;5094371;28;20807;-77
2022/05/15 07:25:50;;;;;;;12.70;5.60;;;20.20;93.50;;;;;;5094263;28;20448;-77
2022/05/15 07:28:18;;;;;;;10.40;4.80;;;20.30;93.30;;;;;;5095105;28;20479;-76
2022/05/15 07:30:46;;;;;;;10.50;6.03;;;20.30;93.10;;;;;;5095251;28;21031;-78
2022/05/15 07:33:19;;;;;;;10.57;5.60;;;20.50;93.00;;;;;;5094542;28;20888;-78
2022/05/15 07:35:47;;;;;;;10.07;3.90;;;20.60;92.70;;;;;;5095557;28;20477;-78
2022/05/15 07:38:16;;;;;;;10.60;4.97;;;20.70;92.30;;;;;;5094527;28;21038;-77
2022/05/15 07:40:44;;;;;;;11.37;5.00;;;20.80;92.10;;;;;;5094118;28;20571;-78
2022/05/15 07:43:13;;;;;;;7.97;4.53;;;20.90;92.00;;;;;;5094673;28;20486;-77
2022/05/15 07:45:41;;;;;;;7.07;4.40;;;21.00;91.90;;;;;;5095230;28;20562;-77
2022/05/15 07:48:10;;;;;;;9.07;4.13;;;21.20;91.70;;;;;;5096393;28;20428;-77
2022/05/15 07:50:39;;;;;;;8.90;4.13;;;21.30;91.50;;;;;;5095869;28;20464;-78
2022/05/15 07:53:08;;;;;;;8.70;3.90;;;21.40;91.30;;;;;;5095298;28;20957;-77
2022/05/15 07:55:36;;;;;;;12.80;8.50;;;21.50;91.10;;;;;;5096086;28;20476;-78
2022/05/15 07:58:04;;;;;;;10.90;5.90;;;21.70;91.00;;;;;;5094387;28;20487;-79
2022/05/15 08:00:33;;;;;;;12.60;6.20;;;21.80;90.80;;;;;;5097887;28;20462;-78
2022/05/15 08:03:03;;;;;;;9.90;5.30;;;21.90;90.50;;;;;;5098220;28;20482;-78
2022/05/15 08:08:24;;;;;;;9.37;4.40;;;22.10;90.00;;;;;;5095037;28;20451;-78
2022/05/15 08:10:52;;;;;;;7.50;4.17;;;22.10;89.60;;;;;;5095883;28;20560;-78
2022/05/15 08:13:23;;;;;;;6.40;3.23;;;22.10;89.30;;;;;;5095212;28;20475;-78
2022/05/15 08:15:51;;;;;;;9.27;3.70;;;22.20;88.70;;;;;;5096166;28;20417;-77
2022/05/15 08:23:56;;;;;;;7.77;3.57;;;22.30;87.30;;;;;;5094683;28;20442;-77
2022/05/15 08:26:25;;;;;;;6.77;3.83;;;22.30;86.60;;;;;;5094283;28;20436;-78
2022/05/15 08:28:54;;;;;;;12.97;4.83;;;22.30;86.20;;;;;;5095158;28;20462;-78
2022/05/15 08:31:24;;;;;;;10.10;4.87;;;22.30;85.90;;;;;;5098221;28;21033;-79
2022/05/15 08:33:53;;;;;;;6.57;3.33;;;22.30;85.50;;;;;;5098017;28;20447;-77
2022/05/15 08:36:22;;;;;;;8.00;3.30;;;22.30;86.00;;;;;;5097552;28;20443;-78
2022/05/15 08:38:50;;;;;;;7.40;3.33;;;22.30;85.30;;;;;;5099422;28;20452;-77
2022/05/15 08:41:29;;;;;;;7.00;3.43;;;22.30;84.90;;;;;;5096920;28;21000;-77
2022/05/15 08:44:03;;;;;;;8.47;3.77;;;22.40;84.40;;;;;;5098525;28;20444;-77
2022/05/15 08:46:39;;;;;;;6.30;3.80;;;22.50;84.50;;;;;;5099209;28;20438;-78
2022/05/15 08:49:12;;;;;;;7.73;3.73;;;22.50;84.30;;;;;;5099743;28;20454;-78
2022/05/15 08:51:48;;;;;;;6.77;3.27;;;22.60;83.80;;;;;;5102283;28;21039;-78
2022/05/15 08:54:16;;;;;;;7.57;3.23;;;22.70;83.40;;;;;;5103036;28;20519;-78
2022/05/15 08:56:50;;;;;;;6.47;3.57;;;22.70;82.90;;;;;;5102729;28;20439;-78
2022/05/15 08:59:25;;;;;;;7.37;2.80;;;22.70;82.50;;;;;;5100440;28;20851;-79
2022/05/15 09:01:56;;;;;;;7.60;3.47;;;22.80;82.10;;;;;;5101542;28;20494;-78
2022/05/15 09:04:25;;;;;;;5.30;2.63;;;22.90;82.40;;;;;;5099648;28;20439;-78
2022/05/15 09:07:14;;;;;;;5.00;2.80;;;22.90;81.90;;;;;;5098714;28;20523;-77
2022/05/15 09:09:52;;;;;;;5.87;2.70;;;22.90;81.20;;;;;;5099070;28;20444;-79
2022/05/15 09:12:24;;;;;;;5.70;3.23;;;22.90;81.10;;;;;;5098624;28;20491;-78
2022/05/15 09:15:01;;;;;;;7.63;3.30;;;23.00;81.10;;;;;;5099486;28;20499;-78
2022/05/15 09:17:38;;;;;;;3.47;2.47;;;23.00;80.40;;;;;;5099005;28;20882;-77
2022/05/15 09:20:10;;;;;;;9.20;4.13;;;23.10;80.20;;;;;;5096196;28;20447;-77
2022/05/15 09:22:43;;;;;;;7.80;4.53;;;23.10;79.60;;;;;;5098226;28;20817;-77
2022/05/15 09:25:17;;;;;;;4.13;2.60;;;23.10;79.10;;;;;;5095444;28;20464;-77
2022/05/15 09:28:02;;;;;;;5.73;2.73;;;23.00;79.00;;;;;;5097971;28;20427;-77
2022/05/15 09:30:36;;;;;;;6.63;2.50;;;23.00;79.10;;;;;;5097954;28;20476;-77
2022/05/15 09:33:06;;;;;;;4.50;2.27;;;23.10;79.30;;;;;;5096787;28;20470;-78
2022/05/15 09:35:36;;;;;;;4.40;2.57;;;23.10;79.20;;;;;;5097272;28;20531;-78
2022/05/15 09:43:57;;;;;;;9.40;3.10;;;23.50;78.70;;;;;;5036189;28;20478;-77
2022/05/15 09:46:28;;;;;;;6.63;2.80;;;23.60;77.70;;;;;;5019283;28;20490;-77
2022/05/15 09:49:00;;;;;;;5.77;3.30;;;23.60;77.00;;;;;;5055244;28;20440;-77
2022/05/15 09:51:35;;;;;;;7.10;2.97;;;23.50;76.60;;;;;;5095173;28;20475;-77
2022/05/15 09:54:03;;;;;;;7.03;2.90;;;23.40;76.50;;;;;;5096982;28;20443;-77
2022/05/15 09:56:34;;;;;;;7.50;2.60;;;23.40;76.50;;;;;;5094862;28;20479;-77
2022/05/15 09:59:11;;;;;;;4.40;2.20;;;23.40;76.10;;;;;;5095686;28;20444;-77
2022/05/15 10:01:50;;;;;;;4.50;2.40;;;23.50;76.20;;;;;;5095461;28;20464;-77
2022/05/15 10:04:24;;;;;;;6.13;2.23;;;23.60;76.20;;;;;;5096517;28;20478;-77
2022/05/15 10:06:55;;;;;;;5.43;2.67;;;23.70;75.90;;;;;;5094964;28;21012;-77
2022/05/15 10:09:30;;;;;;;5.77;2.77;;;23.80;75.50;;;;;;5095697;28;20489;-77
2022/05/15 10:12:02;;;;;;;6.70;3.10;;;23.90;74.80;;;;;;5096106;28;20460;-77
2022/05/15 10:14:38;;;;;;;5.00;3.13;;;23.90;74.80;;;;;;5095585;28;20479;-77
2022/05/15 10:17:09;;;;;;;5.80;2.57;;;23.90;74.70;;;;;;5095583;28;20471;-77
2022/05/15 10:19:44;;;;;;;7.23;2.97;;;24.00;74.70;;;;;;5095699;28;20448;-77
2022/05/15 10:22:22;;;;;;;7.50;3.00;;;24.00;74.30;;;;;;5094716;28;20562;-77
2022/05/15 10:25:17;;;;;;;4.37;2.20;;;24.00;74.00;;;;;;5094304;28;20546;-77
2022/05/15 10:27:50;;;;;;;6.83;3.50;;;24.10;74.10;;;;;;5095500;28;20821;-77
2022/05/15 10:30:23;;;;;;;4.23;2.27;;;24.10;73.70;;;;;;5094785;28;20859;-77
2022/05/15 10:32:59;;;;;;;6.13;2.50;;;24.20;73.20;;;;;;5096667;28;20478;-77
2022/05/15 10:35:36;;;;;;;4.63;2.20;;;24.20;72.50;;;;;;5094145;28;20443;-77
2022/05/15 10:38:17;;;;;;;5.40;2.40;;;24.10;72.00;;;;;;5095458;28;20473;-77
2022/05/15 10:40:52;;;;;;;4.70;2.10;;;24.10;71.70;;;;;;5095778;28;20464;-78
2022/05/15 10:43:44;;;;;;;3.67;2.00;;;24.10;71.10;;;;;;5094794;28;20963;-77
2022/05/15 10:46:24;;;;;;;4.97;2.50;;;24.10;70.20;;;;;;5094983;28;20514;-77
2022/05/15 10:49:02;;;;;;;3.90;2.30;;;24.10;70.20;;;;;;5093933;28;20527;-76
2022/05/15 10:51:40;;;;;;;4.53;2.10;;;24.10;69.90;;;;;;5092641;28;21001;-76
2022/05/15 10:57:29;;;;;;;4.00;2.50;;;24.10;69.60;;;;;;5093034;28;20448;-76
2022/05/15 11:00:19;;;;;;;6.27;2.33;;;24.10;69.70;;;;;;5093130;28;20444;-76
2022/05/15 11:03:24;;;;;;;11.80;3.00;;;24.20;69.90;;;;;;5092951;28;20437;-76
2022/05/15 11:06:17;;;;;;;5.27;2.50;;;24.20;70.00;;;;;;5088104;28;20570;-76
2022/05/15 11:08:50;;;;;;;4.43;1.70;;;24.30;69.80;;;;;;5092820;28;20526;-77
2022/05/15 11:11:24;;;;;;;5.33;2.40;;;24.40;69.50;;;;;;5092931;28;20468;-76
2022/05/15 11:13:56;;;;;;;6.53;2.70;;;24.40;69.10;;;;;;5092744;28;20525;-76
2022/05/15 11:16:37;;;;;;;6.03;2.50;;;24.50;68.80;;;;;;5092750;28;20512;-76
2022/05/15 11:19:26;;;;;;;4.03;2.00;;;24.60;68.90;;;;;;5094140;28;20515;-76
2022/05/15 11:22:01;;;;;;;4.80;2.23;;;24.60;67.20;;;;;;5092542;28;20499;-75
2022/05/15 11:24:40;;;;;;;4.20;2.30;;;24.60;66.80;;;;;;5092472;28;20933;-76
2022/05/15 11:27:16;;;;;;;3.40;1.70;;;24.50;66.60;;;;;;5092294;28;21014;-76
2022/05/15 11:29:49;;;;;;;5.47;2.80;;;24.50;66.00;;;;;;5092382;28;20530;-76
2022/05/15 11:32:40;;;;;;;3.70;2.67;;;24.50;65.70;;;;;;5093685;28;20547;-76
2022/05/15 11:35:31;;;;;;;3.83;2.30;;;24.40;65.80;;;;;;5092394;28;20490;-76
2022/05/15 11:38:19;;;;;;;4.50;2.13;;;24.40;65.20;;;;;;5093694;28;20421;-76
2022/05/15 11:40:50;;;;;;;4.33;2.30;;;24.50;65.40;;;;;;5093664;28;20531;-76
2022/05/15 11:43:53;;;;;;;6.00;2.33;;;24.50;64.80;;;;;;5092466;28;20486;-76
2022/05/15 11:46:21;;;;;;;4.60;2.07;;;24.50;63.90;;;;;;5082776;28;20468;-76
2022/05/15 11:48:56;;;;;;;5.27;2.10;;;24.40;63.90;;;;;;5092482;28;20451;-76
2022/05/15 11:51:31;;;;;;;3.57;1.83;;;24.30;62.70;;;;;;5092144;28;20475;-76
2022/05/15 11:54:03;;;;;;;4.13;1.80;;;24.30;62.00;;;;;;5092171;28;20944;-76
2022/05/15 11:56:40;;;;;;;6.60;2.40;;;24.20;61.90;;;;;;5093678;28;20432;-76
2022/05/15 11:59:22;;;;;;;3.00;1.50;;;24.10;61.60;;;;;;5092104;28;20941;-76
2022/05/15 12:01:53;;;;;;;4.43;1.93;;;24.10;60.80;;;;;;5092061;28;20475;-76
2022/05/15 12:04:38;;;;;;;4.17;1.97;;;24.10;61.10;;;;;;5096307;28;20839;-76
2022/05/15 12:07:28;;;;;;;4.10;2.77;;;24.10;61.20;;;;;;5097330;28;20924;-76
2022/05/15 12:09:58;;;;;;;3.43;2.00;;;24.10;60.80;;;;;;5096110;28;20894;-76
2022/05/15 12:12:46;;;;;;;2.40;1.60;;;24.20;60.60;;;;;;5097516;28;20464;-76
2022/05/15 12:15:37;;;;;;;5.33;2.20;;;24.20;60.60;;;;;;5097588;28;20432;-76
2022/05/15 12:18:31;;;;;;;3.70;1.93;;;24.20;60.20;;;;;;5097170;28;20439;-76
2022/05/15 12:20:59;;;;;;;3.90;2.47;;;24.20;60.20;;;;;;5095850;28;20977;-76
2022/05/15 12:23:34;;;;;;;5.60;2.50;;;24.10;60.10;;;;;;5097426;28;20436;-76
2022/05/15 12:26:19;;;;;;;3.80;2.10;;;24.00;60.00;;;;;;5097320;28;20424;-76
2022/05/15 12:28:55;;;;;;;4.03;2.27;;;24.00;59.60;;;;;;5096139;28;20539;-76
2022/05/15 12:31:31;;;;;;;3.70;1.80;;;24.00;59.50;;;;;;5095734;28;20532;-76
2022/05/15 12:34:15;;;;;;;4.93;2.03;;;23.90;59.50;;;;;;5095730;28;20918;-75
2022/05/15 12:36:46;;;;;;;4.40;1.70;;;24.00;59.50;;;;;;5095897;28;20816;-76
2022/05/15 12:39:21;;;;;;;4.10;2.30;;;24.00;59.60;;;;;;5096914;28;20443;-76
2022/05/15 12:41:51;;;;;;;4.23;1.90;;;24.00;59.50;;;;;;5095503;28;20464;-76
2022/05/15 12:44:33;;;;;;;6.50;1.60;;;24.00;59.20;;;;;;5095965;28;20933;-76
2022/05/15 12:47:03;;;;;;;3.20;1.50;;;23.90;59.50;;;;;;5095411;28;20468;-76
2022/05/15 12:49:34;;;;;;;2.73;1.70;;;23.90;59.00;;;;;;5095673;28;20542;-76
2022/05/15 12:52:11;;;;;;;3.97;1.80;;;23.90;58.40;;;;;;5095264;28;20851;-76
2022/05/15 12:54:40;;;;;;;3.53;2.17;;;23.80;57.90;;;;;;5095285;28;20485;-76
2022/05/15 12:57:13;;;;;;;3.50;1.73;;;23.80;57.70;;;;;;5096533;28;20521;-76
2022/05/15 12:59:43;;;;;;;3.17;1.50;;;23.70;57.70;;;;;;5096412;28;20431;-76
2022/05/15 13:02:24;;;;;;;3.53;1.67;;;23.70;57.60;;;;;;5095122;28;20472;-75
2022/05/15 13:04:54;;;;;;;4.20;2.33;;;23.70;57.50;;;;;;5096319;28;20478;-76
2022/05/15 13:07:25;;;;;;;3.10;1.77;;;23.80;57.40;;;;;;5094986;28;20909;-76
2022/05/15 13:10:01;;;;;;;2.90;1.67;;;23.80;57.00;;;;;;5094987;28;20790;-76
2022/05/15 13:12:31;;;;;;;2.77;2.00;;;23.80;56.90;;;;;;5094971;28;20495;-75
2022/05/15 13:15:01;;;;;;;3.23;1.73;;;23.80;57.20;;;;;;5095542;28;20519;-75
2022/05/15 13:17:36;;;;;;;3.90;2.03;;;23.80;57.30;;;;;;5096361;28;20436;-76
2022/05/15 13:20:13;;;;;;;4.20;1.57;;;23.80;57.00;;;;;;5096076;28;20416;-75
2022/05/15 13:22:44;;;;;;;3.60;2.60;;;23.90;57.00;;;;;;5095971;28;20512;-75
2022/05/15 13:25:14;;;;;;;4.00;1.87;;;23.90;57.30;;;;;;5096276;28;20929;-76
2022/05/15 13:27:46;;;;;;;2.50;1.73;;;23.90;57.40;;;;;;5096044;28;20464;-75
2022/05/15 13:30:18;;;;;;;3.80;2.03;;;23.90;57.20;;;;;;5094515;28;20475;-75
2022/05/15 13:32:50;;;;;;;3.53;1.93;;;23.90;57.30;;;;;;5096111;28;20890;-75